createdAt,value
2018-06-11T00:02:27.654Z,6.40
2018-06-11T00:04:58.864Z,5.27
2018-06-11T00:07:30.140Z,3.50
2018-06-11T00:10:01.879Z,3.20
2018-06-11T00:12:33.466Z,3.77
2018-06-11T00:15:04.877Z,3.57
2018-06-11T00:17:36.447Z,4.10
2018-06-11T00:20:07.441Z,3.00
2018-06-11T00:22:39.352Z,3.80
2018-06-11T00:25:10.582Z,3.67
2018-06-11T00:27:41.721Z,4.33
2018-06-11T00:30:12.795Z,3.67
2018-06-11T00:32:43.957Z,5.43
2018-06-11T00:35:15.023Z,5.50
2018-06-11T00:37:45.978Z,4.17
2018-06-11T00:40:17.266Z,3.07
2018-06-11T00:42:48.240Z,7.07
2018-06-11T00:45:19.092Z,3.60
2018-06-11T00:47:50.198Z,4.77
2018-06-11T00:50:21.165Z,4.00
2018-06-11T00:52:51.571Z,6.07
2018-06-11T00:55:22.884Z,4.77
2018-06-11T00:57:53.776Z,5.37
2018-06-11T01:00:25.095Z,3.93
2018-06-11T01:02:56.157Z,4.27
2018-06-11T01:05:27.418Z,3.10
2018-06-11T01:07:59.062Z,7.07
2018-06-11T01:10:30.053Z,3.27
2018-06-11T01:13:02.122Z,3.40
2018-06-11T01:15:32.557Z,5.10
2018-06-11T01:18:03.765Z,8.40
2018-06-11T01:20:34.760Z,9.53
2018-06-11T01:23:06.277Z,6.47
2018-06-11T01:25:37.290Z,6.00
2018-06-11T01:28:08.218Z,7.47
2018-06-11T01:30:39.309Z,4.07
2018-06-11T01:33:10.278Z,4.63
2018-06-11T01:35:42.445Z,4.63
2018-06-11T01:38:13.283Z,4.17
2018-06-11T01:40:44.456Z,3.67
2018-06-11T01:43:15.604Z,6.87
2018-06-11T01:45:46.559Z,2.83
2018-06-11T01:48:17.508Z,5.33
2018-06-11T01:50:48.744Z,3.87
2018-06-11T01:53:19.987Z,5.10
2018-06-11T01:55:51.395Z,3.93
2018-06-11T01:58:23.708Z,9.03
2018-06-11T02:00:54.993Z,6.70
2018-06-11T02:03:27.098Z,4.93
2018-06-11T02:05:58.379Z,3.10
2018-06-11T02:08:29.408Z,4.70
2018-06-11T02:11:01.301Z,4.40
2018-06-11T02:13:32.491Z,3.00
2018-06-11T02:16:03.401Z,4.40
2018-06-11T02:18:34.499Z,4.43
2018-06-11T02:21:05.551Z,6.07
2018-06-11T02:23:36.586Z,5.43
2018-06-11T02:26:07.562Z,5.00
2018-06-11T02:28:38.676Z,5.97
2018-06-11T02:31:10.050Z,8.73
2018-06-11T02:33:41.240Z,7.27
2018-06-11T02:36:12.495Z,7.70
2018-06-11T02:38:43.524Z,5.43
2018-06-11T02:41:14.614Z,6.00
2018-06-11T02:43:46.929Z,6.63
2018-06-11T02:46:18.251Z,8.20
2018-06-11T02:48:50.268Z,9.03
2018-06-11T02:51:21.580Z,11.07
2018-06-11T02:53:52.949Z,7.80
2018-06-11T02:56:25.067Z,7.23
2018-06-11T02:58:56.249Z,3.63
2018-06-11T03:01:27.658Z,3.07
2018-06-11T03:03:58.902Z,2.90
2018-06-11T03:06:30.053Z,4.10
2018-06-11T03:09:00.978Z,2.90
2018-06-11T03:11:34.500Z,4.70
2018-06-11T03:14:05.821Z,5.80
2018-06-11T03:16:37.019Z,5.30
2018-06-11T03:19:08.219Z,6.87
2018-06-11T03:21:39.295Z,8.33
2018-06-11T03:24:09.680Z,8.63
2018-06-11T03:26:40.996Z,7.13
2018-06-11T03:29:11.996Z,6.27
2018-06-11T03:31:42.910Z,7.50
2018-06-11T03:34:14.799Z,9.23
2018-06-11T03:36:45.247Z,8.10
2018-06-11T03:39:16.325Z,9.23
2018-06-11T03:41:47.541Z,9.60
2018-06-11T03:44:18.575Z,10.83
2018-06-11T03:46:49.558Z,14.57
2018-06-11T03:49:21.557Z,9.40
2018-06-11T03:51:52.364Z,10.60
2018-06-11T03:54:23.307Z,7.33
2018-06-11T03:56:54.587Z,12.00
2018-06-11T03:59:26.971Z,6.57
2018-06-11T04:01:58.007Z,6.53
2018-06-11T04:04:28.993Z,9.83
2018-06-11T04:07:00.079Z,7.07
2018-06-11T04:09:31.171Z,6.10
2018-06-11T04:12:02.381Z,7.50
2018-06-11T04:14:33.392Z,9.47
2018-06-11T04:17:05.125Z,5.40
2018-06-11T04:19:36.182Z,8.40
2018-06-11T04:22:07.474Z,7.97
2018-06-11T04:24:38.487Z,9.53
2018-06-11T04:27:09.548Z,5.00
2018-06-11T04:29:41.007Z,13.10
2018-06-11T04:32:11.596Z,6.70
2018-06-11T04:34:43.867Z,10.37
2018-06-11T04:37:14.708Z,5.53
2018-06-11T04:39:45.846Z,7.10
2018-06-11T04:42:18.104Z,27.83
2018-06-11T04:44:49.193Z,11.60
2018-06-11T04:47:19.565Z,11.03
2018-06-11T04:49:50.821Z,6.83
2018-06-11T04:52:21.312Z,4.53
2018-06-11T04:54:52.468Z,7.73
2018-06-11T04:57:23.811Z,6.17
2018-06-11T04:59:54.793Z,5.17
2018-06-11T05:02:25.944Z,10.43
2018-06-11T05:04:56.907Z,7.87
2018-06-11T05:07:28.063Z,11.80
2018-06-11T05:09:59.027Z,8.73
2018-06-11T05:12:29.990Z,6.70
2018-06-11T05:15:00.973Z,9.03
2018-06-11T05:17:33.493Z,5.27
2018-06-11T05:20:04.643Z,8.40
2018-06-11T05:22:35.506Z,10.70
2018-06-11T05:25:06.702Z,9.17
2018-06-11T05:27:37.587Z,8.30
2018-06-11T05:30:08.829Z,6.80
2018-06-11T05:32:40.841Z,8.63
2018-06-11T05:35:12.738Z,9.93
2018-06-11T05:37:43.874Z,5.37
2018-06-11T05:40:14.936Z,11.37
2018-06-11T05:42:46.152Z,9.27
2018-06-11T05:45:16.636Z,8.07
2018-06-11T05:47:48.303Z,5.83
2018-06-11T05:50:19.570Z,3.87
2018-06-11T05:52:50.934Z,10.17
2018-06-11T05:55:22.663Z,9.23
2018-06-11T05:57:56.278Z,8.43
2018-06-11T06:00:27.851Z,32.07
2018-06-11T06:02:59.948Z,17.80
2018-06-11T06:05:32.606Z,13.63
2018-06-11T06:08:04.400Z,7.33
2018-06-11T06:10:35.498Z,12.47
2018-06-11T06:13:06.674Z,13.13
2018-06-11T06:15:39.593Z,14.73
2018-06-11T06:18:10.730Z,10.50
2018-06-11T06:20:42.173Z,6.53
2018-06-11T06:23:13.731Z,7.57
2018-06-11T06:25:45.731Z,5.53
2018-06-11T06:28:17.015Z,6.07
2018-06-11T06:30:49.245Z,7.67
2018-06-11T06:33:20.526Z,8.30
2018-06-11T06:35:52.200Z,5.07
2018-06-11T06:38:23.650Z,6.37
2018-06-11T06:40:54.841Z,9.40
2018-06-11T06:43:26.252Z,3.73
2018-06-11T06:45:58.742Z,6.43
2018-06-11T06:48:30.062Z,3.97
2018-06-11T06:51:01.664Z,4.30
2018-06-11T06:53:32.564Z,3.43
2018-06-11T06:56:03.798Z,4.80
2018-06-11T06:58:37.123Z,3.53
2018-06-11T07:01:08.348Z,2.70
2018-06-11T07:03:39.593Z,10.20
2018-06-11T07:06:12.262Z,5.13
2018-06-11T07:08:43.856Z,4.10
2018-06-11T07:11:16.128Z,4.40
2018-06-11T07:13:48.085Z,5.20
2018-06-11T07:16:20.314Z,4.57
2018-06-11T07:18:51.821Z,5.47
2018-06-11T07:21:23.209Z,5.10
2018-06-11T07:23:54.589Z,4.73
2018-06-11T07:26:26.550Z,3.20
2018-06-11T07:28:58.489Z,6.43
2018-06-11T07:31:30.040Z,5.33
2018-06-11T07:34:01.423Z,3.20
2018-06-11T07:36:33.201Z,3.50
2018-06-11T07:39:07.437Z,9.87
2018-06-11T07:41:39.515Z,8.33
2018-06-11T07:44:11.589Z,5.07
2018-06-11T07:46:42.936Z,2.13
2018-06-11T07:49:15.703Z,6.57
2018-06-11T07:51:47.747Z,4.30
2018-06-11T07:54:18.209Z,5.23
2018-06-11T07:56:50.279Z,3.87
2018-06-11T07:59:22.754Z,2.83
2018-06-11T08:01:54.292Z,5.63
2018-06-11T08:04:25.816Z,3.20
2018-06-11T08:06:57.939Z,2.73
2018-06-11T08:09:29.382Z,3.10
2018-06-11T08:12:09.613Z,4.17
2018-06-11T08:14:41.366Z,3.43
2018-06-11T08:17:13.297Z,4.10
2018-06-11T08:19:45.096Z,6.97
2018-06-11T08:22:16.596Z,3.73
2018-06-11T08:24:47.891Z,3.30
2018-06-11T08:27:20.406Z,2.23
2018-06-11T08:29:51.819Z,2.40
2018-06-11T08:32:23.478Z,2.67
2018-06-11T08:34:54.694Z,2.93
2018-06-11T08:37:26.580Z,2.37
2018-06-11T08:39:57.835Z,2.90
2018-06-11T08:42:29.241Z,5.13
2018-06-11T08:45:01.345Z,1.93
2018-06-11T08:47:32.340Z,9.53
2018-06-11T08:50:03.639Z,3.17
2018-06-11T08:52:34.936Z,4.40
2018-06-11T08:55:06.253Z,2.30
2018-06-11T08:57:37.685Z,4.17
2018-06-11T09:00:09.940Z,6.83
2018-06-11T09:02:41.999Z,3.73
2018-06-11T09:05:13.279Z,3.93
2018-06-11T09:07:45.239Z,3.93
2018-06-11T09:10:17.563Z,3.93
2018-06-11T09:12:48.867Z,6.37
2018-06-11T09:15:21.844Z,7.73
2018-06-11T09:17:53.064Z,3.97
2018-06-11T09:20:24.171Z,5.67
2018-06-11T09:22:55.334Z,6.97
2018-06-11T09:25:26.642Z,8.30
2018-06-11T09:27:58.813Z,5.77
2018-06-11T09:30:30.892Z,8.10
2018-06-11T09:33:01.968Z,6.53
2018-06-11T09:35:33.165Z,6.43
2018-06-11T09:38:05.126Z,7.63
2018-06-11T09:40:36.402Z,5.80
2018-06-11T09:43:08.088Z,6.00
2018-06-11T09:45:40.250Z,4.50
2018-06-11T09:48:11.826Z,3.40
2018-06-11T09:50:43.135Z,5.33
2018-06-11T09:53:14.514Z,4.87
2018-06-11T09:55:45.893Z,5.57
2018-06-11T09:58:17.544Z,4.50
2018-06-11T10:00:49.841Z,10.27
2018-06-11T10:03:21.579Z,9.47
2018-06-11T10:05:53.707Z,6.80
2018-06-11T10:22:49.751Z,8.63
2018-06-11T10:25:22.421Z,12.20
2018-06-11T10:27:54.470Z,3.83
2018-06-11T10:30:27.491Z,28.27
2018-06-11T10:32:58.841Z,10.57
2018-06-11T10:35:30.033Z,13.33
2018-06-11T10:38:01.182Z,9.33
2018-06-11T10:40:32.791Z,11.07
2018-06-11T10:43:04.184Z,26.57
2018-06-11T10:45:35.192Z,18.77
2018-06-11T10:48:06.784Z,9.73
2018-06-11T10:50:38.819Z,13.47
2018-06-11T10:53:10.601Z,10.63
2018-06-11T10:55:41.919Z,13.80
2018-06-11T10:58:13.417Z,17.47
2018-06-11T11:00:44.851Z,8.98
2018-06-11T11:03:16.699Z,13.75
2018-06-11T11:05:48.630Z,8.58
2018-06-11T11:08:20.953Z,21.33
2018-06-11T11:10:52.207Z,9.73
2018-06-11T11:13:23.649Z,13.72
2018-06-11T11:15:55.058Z,21.17
2018-06-11T11:18:26.563Z,19.47
2018-06-11T11:20:58.059Z,18.30
2018-06-11T11:23:29.461Z,9.20
2018-06-11T11:26:01.574Z,14.33
2018-06-11T11:28:32.468Z,21.00
2018-06-11T11:31:03.149Z,15.57
2018-06-11T11:33:34.270Z,20.30
2018-06-11T11:36:05.905Z,17.83
2018-06-11T11:38:38.833Z,18.33
2018-06-11T11:41:10.645Z,22.03
2018-06-11T11:43:43.044Z,16.37
2018-06-11T11:46:14.250Z,13.77
2018-06-11T11:48:45.682Z,20.80
2018-06-11T11:51:16.799Z,15.43
2018-06-11T11:53:48.254Z,18.47
2018-06-11T11:56:21.197Z,12.70
2018-06-11T11:58:53.227Z,14.90
2018-06-11T12:01:24.980Z,13.40
2018-06-11T12:03:56.297Z,19.17
2018-06-11T12:06:28.438Z,24.97
2018-06-11T12:08:59.692Z,21.63
2018-06-11T12:11:30.914Z,19.57
2018-06-11T12:14:02.960Z,20.87
2018-06-11T12:16:36.116Z,24.43
2018-06-11T12:19:07.386Z,37.53
2018-06-11T12:21:38.791Z,20.50
2018-06-11T12:24:10.650Z,20.47
2018-06-11T12:26:42.384Z,18.87
2018-06-11T12:29:13.568Z,22.07
2018-06-11T12:31:45.328Z,22.13
2018-06-11T12:34:17.472Z,22.37
2018-06-11T12:36:48.761Z,15.63
2018-06-11T12:39:20.967Z,18.10
2018-06-11T12:41:52.314Z,18.33
2018-06-11T12:44:24.375Z,18.17
2018-06-11T12:46:55.269Z,20.30
2018-06-11T12:49:26.041Z,18.13
2018-06-11T12:51:57.519Z,16.83
2018-06-11T12:54:29.083Z,15.33
2018-06-11T12:57:00.205Z,12.57
2018-06-11T12:59:31.818Z,15.97
2018-06-11T13:02:04.051Z,32.30
2018-06-11T13:04:35.568Z,23.13
2018-06-11T13:07:07.248Z,14.13
2018-06-11T13:09:39.568Z,18.17
2018-06-11T13:12:10.836Z,13.43
2018-06-11T13:14:42.085Z,14.70
2018-06-11T13:17:13.244Z,15.67
2018-06-11T13:19:44.548Z,17.87
2018-06-11T13:22:16.324Z,9.63
2018-06-11T13:24:47.908Z,15.77
2018-06-11T13:27:19.818Z,15.13
2018-06-11T13:29:51.088Z,15.53
2018-06-11T13:32:22.390Z,8.87
2018-06-11T13:34:54.465Z,15.37
2018-06-11T13:37:26.062Z,12.90
2018-06-11T13:39:57.920Z,11.07
2018-06-11T13:42:30.040Z,13.90
2018-06-11T13:45:01.706Z,15.40
2018-06-11T13:47:32.666Z,12.30
2018-06-11T13:50:04.061Z,14.87
2018-06-11T13:52:36.483Z,16.70
2018-06-11T13:55:08.373Z,14.90
2018-06-11T13:57:39.572Z,16.60
2018-06-11T14:00:11.817Z,14.20
2018-06-11T14:02:43.249Z,19.63
2018-06-11T14:05:19.910Z,14.97
2018-06-11T14:07:52.224Z,12.13
2018-06-11T14:10:23.253Z,14.37
2018-06-11T14:12:56.369Z,10.40
2018-06-11T14:15:28.151Z,7.63
2018-06-11T14:18:00.140Z,15.70
2018-06-11T14:20:31.257Z,14.87
2018-06-11T14:23:02.733Z,14.53
2018-06-11T14:25:34.649Z,10.00
2018-06-11T14:28:06.087Z,9.80
2018-06-11T14:30:39.122Z,16.03
2018-06-11T14:33:11.369Z,24.13
2018-06-11T14:35:42.983Z,12.57
2018-06-11T14:38:14.511Z,18.10
2018-06-11T14:40:45.615Z,22.17
2018-06-11T14:43:17.167Z,13.67
2018-06-11T14:45:48.893Z,10.60
2018-06-11T14:48:20.344Z,13.50
2018-06-11T14:50:51.647Z,10.53
2018-06-11T14:53:23.538Z,10.90
2018-06-11T14:55:54.877Z,11.90
2018-06-11T14:58:26.275Z,11.67
2018-06-11T15:00:58.848Z,6.87
2018-06-11T15:03:29.983Z,8.40
2018-06-11T15:06:01.318Z,9.77
2018-06-11T15:08:32.639Z,6.37
2018-06-11T15:11:04.050Z,5.60
2018-06-11T15:13:35.511Z,8.77
2018-06-11T15:16:08.461Z,10.00
2018-06-11T15:18:39.574Z,11.47
2018-06-11T15:21:11.037Z,8.40
2018-06-11T15:23:43.647Z,8.13
2018-06-11T15:26:15.988Z,14.10
2018-06-11T15:28:48.207Z,7.67
2018-06-11T15:31:19.870Z,8.57
2018-06-11T15:33:52.517Z,13.60
2018-06-11T15:36:24.049Z,12.67
2018-06-11T15:38:56.728Z,7.10
2018-06-11T15:41:28.206Z,9.10
2018-06-11T15:44:00.269Z,11.40
2018-06-11T15:46:31.653Z,7.80
2018-06-11T15:49:02.981Z,9.00
2018-06-11T15:51:34.718Z,23.33
2018-06-11T15:54:07.081Z,9.37
2018-06-11T15:56:38.487Z,9.73
2018-06-11T15:59:11.295Z,11.73
2018-06-11T16:01:42.659Z,12.00
2018-06-11T16:04:14.057Z,10.60
2018-06-11T16:06:44.595Z,11.60
2018-06-11T16:09:15.026Z,10.13
2018-06-11T16:11:47.463Z,9.17
2018-06-11T16:14:18.617Z,13.53
2018-06-11T16:16:49.833Z,26.90
2018-06-11T16:19:21.105Z,29.00
2018-06-11T16:21:52.999Z,8.63
2018-06-11T16:24:24.481Z,11.77
2018-06-11T16:26:55.969Z,10.23
2018-06-11T16:29:27.562Z,33.53
2018-06-11T16:31:59.005Z,15.57
2018-06-11T16:34:30.857Z,14.77
2018-06-11T16:37:03.771Z,10.77
2018-06-11T16:39:35.868Z,13.13
2018-06-11T16:42:07.366Z,11.87
2018-06-11T16:44:39.354Z,12.60
2018-06-11T16:47:11.773Z,15.53
2018-06-11T16:49:43.533Z,10.97
2018-06-11T16:52:16.556Z,12.53
2018-06-11T16:54:48.730Z,11.40
2018-06-11T16:57:20.814Z,10.63
2018-06-11T16:59:52.117Z,11.33
2018-06-11T17:02:24.612Z,12.90
2018-06-11T17:04:56.156Z,13.03
2018-06-11T17:07:27.534Z,14.10
2018-06-11T17:09:59.965Z,12.27
2018-06-11T17:12:32.134Z,14.60
2018-06-11T17:15:03.723Z,13.13
2018-06-11T17:17:35.586Z,14.50
2018-06-11T17:20:07.562Z,15.87
2018-06-11T17:22:40.965Z,10.03
2018-06-11T17:25:13.542Z,8.93
2018-06-11T17:27:45.803Z,15.73
2018-06-11T17:30:18.522Z,8.30
2018-06-11T17:32:50.245Z,10.17
2018-06-11T17:35:23.589Z,7.33
2018-06-11T17:37:56.962Z,9.93
2018-06-11T17:40:28.954Z,10.57
2018-06-11T17:43:00.847Z,11.53
2018-06-11T17:45:33.259Z,10.37
2018-06-11T17:48:04.671Z,12.00
2018-06-11T17:50:36.040Z,8.47
2018-06-11T17:53:07.538Z,15.27
2018-06-11T17:55:39.011Z,12.03
2018-06-11T17:58:10.371Z,16.57
2018-06-11T18:00:41.731Z,15.20
2018-06-11T18:03:14.054Z,14.63
2018-06-11T18:05:46.484Z,11.97
2018-06-11T18:08:18.367Z,8.07
2018-06-11T18:10:50.508Z,13.37
2018-06-11T18:13:24.410Z,12.93
2018-06-11T18:15:56.700Z,11.87
2018-06-11T18:18:28.846Z,11.43
2018-06-11T18:21:02.287Z,11.93
2018-06-11T18:23:35.918Z,6.13
2018-06-11T18:26:09.312Z,9.20
2018-06-11T18:28:41.683Z,7.40
2018-06-11T18:31:14.353Z,9.00
2018-06-11T18:33:46.225Z,8.47
2018-06-11T18:36:20.297Z,9.67
2018-06-11T18:38:53.105Z,8.67
2018-06-11T18:41:26.329Z,9.63
2018-06-11T18:44:00.091Z,11.37
2018-06-11T18:46:34.072Z,11.03
2018-06-11T18:49:06.549Z,12.03
2018-06-11T18:51:41.404Z,11.83
2018-06-11T18:54:14.606Z,11.47
2018-06-11T18:56:48.144Z,12.90
2018-06-11T18:59:21.129Z,7.03
2018-06-11T19:01:53.738Z,13.23
2018-06-11T19:04:26.828Z,13.53
2018-06-11T19:06:59.633Z,7.97
2018-06-11T19:09:32.717Z,11.03
2018-06-11T19:12:05.470Z,7.07
2018-06-11T19:14:40.588Z,14.00
2018-06-11T19:17:13.231Z,9.60
2018-06-11T19:19:47.485Z,15.23
2018-06-11T19:22:20.975Z,10.30
2018-06-11T19:24:54.356Z,12.60
2018-06-11T19:27:30.713Z,10.80
2018-06-11T19:30:03.682Z,8.77
2018-06-11T19:32:36.003Z,12.47
2018-06-11T19:35:09.072Z,9.87
2018-06-11T19:37:42.437Z,12.60
2018-06-11T19:40:20.023Z,11.50
2018-06-11T19:42:53.404Z,16.10
2018-06-11T19:45:26.753Z,11.37
2018-06-11T19:48:02.096Z,10.97
2018-06-11T19:50:37.004Z,12.17
2018-06-11T19:53:09.805Z,15.27
2018-06-11T19:55:42.665Z,10.30
2018-06-11T19:58:15.624Z,12.50
2018-06-11T20:00:49.070Z,9.03
2018-06-11T20:03:23.500Z,10.13
2018-06-11T20:05:57.901Z,10.77
2018-06-11T20:08:30.968Z,11.90
2018-06-11T20:11:06.044Z,13.23
2018-06-11T20:13:40.710Z,10.53
2018-06-11T20:16:16.740Z,14.27
2018-06-11T20:18:53.576Z,8.47
2018-06-11T20:21:26.600Z,9.60
2018-06-11T20:24:00.599Z,8.37
2018-06-11T20:26:36.987Z,10.30
2018-06-11T20:29:10.159Z,8.83
2018-06-11T20:31:45.190Z,12.07
2018-06-11T20:34:17.900Z,14.03
2018-06-11T20:36:51.210Z,11.43
2018-06-11T20:39:25.464Z,11.50
2018-06-11T20:41:58.941Z,12.67
2018-06-11T20:44:32.352Z,19.03
2018-06-11T20:47:05.556Z,10.57
2018-06-11T20:49:38.580Z,10.67
2018-06-11T20:52:12.056Z,8.37
2018-06-11T20:54:44.809Z,10.90
2018-06-11T20:57:17.931Z,8.50
2018-06-11T20:59:50.000Z,9.83
2018-06-11T21:02:22.238Z,9.27
2018-06-11T21:04:55.893Z,6.00
2018-06-11T21:07:27.702Z,8.07
2018-06-11T21:10:01.272Z,6.10
2018-06-11T21:12:32.953Z,7.07
2018-06-11T21:15:04.916Z,14.60
2018-06-11T21:17:36.305Z,12.70
2018-06-11T21:20:07.786Z,7.60
2018-06-11T21:22:41.347Z,8.80
2018-06-11T21:25:13.791Z,9.17
2018-06-11T21:27:45.154Z,14.00
2018-06-11T21:30:16.313Z,6.63
2018-06-11T21:32:48.304Z,8.00
2018-06-11T21:35:19.646Z,9.97
2018-06-11T21:37:51.588Z,10.30
2018-06-11T21:40:23.470Z,11.03
2018-06-11T21:42:54.528Z,7.10
2018-06-11T21:45:26.004Z,9.23
2018-06-11T21:47:57.264Z,10.57
2018-06-11T21:50:28.243Z,6.47
2018-06-11T21:52:59.467Z,6.73
2018-06-11T21:55:31.248Z,9.17
2018-06-11T21:58:03.179Z,14.33
2018-06-11T22:00:34.877Z,11.20
2018-06-11T22:03:07.321Z,8.53
2018-06-11T22:05:39.123Z,9.70
2018-06-11T22:08:10.703Z,12.87
2018-06-11T22:10:42.311Z,8.50
2018-06-11T22:13:14.498Z,9.33
2018-06-11T22:15:45.788Z,11.00
2018-06-11T22:18:17.361Z,8.57
2018-06-11T22:20:48.929Z,11.10
2018-06-11T22:23:20.687Z,9.50
2018-06-11T22:25:52.352Z,6.57
2018-06-11T22:28:23.910Z,8.93
2018-06-11T22:30:57.325Z,10.93
2018-06-11T22:33:29.760Z,9.90
2018-06-11T22:36:01.245Z,10.30
2018-06-11T22:38:32.542Z,10.93
2018-06-11T22:41:03.763Z,10.17
2018-06-11T22:43:34.856Z,10.20
2018-06-11T22:46:06.635Z,8.37
2018-06-11T22:48:39.918Z,8.33
2018-06-11T22:51:11.256Z,9.00
2018-06-11T22:53:42.704Z,10.40
2018-06-11T22:56:14.016Z,9.77
2018-06-11T22:58:44.914Z,9.10
2018-06-11T23:01:16.184Z,8.13
2018-06-11T23:03:47.586Z,7.73
2018-06-11T23:06:18.881Z,8.27
2018-06-11T23:08:50.543Z,7.70
2018-06-11T23:11:21.428Z,9.93
2018-06-11T23:13:52.489Z,6.97
2018-06-11T23:16:24.399Z,9.40
2018-06-11T23:18:55.254Z,8.90
2018-06-11T23:21:26.541Z,6.67
2018-06-11T23:23:58.632Z,7.57
2018-06-11T23:26:30.139Z,5.70
2018-06-11T23:29:02.134Z,4.23
2018-06-11T23:31:33.517Z,13.47
2018-06-11T23:34:04.510Z,7.20
2018-06-11T23:36:35.534Z,9.63
2018-06-11T23:39:08.354Z,9.23
2018-06-11T23:41:39.427Z,12.33
2018-06-11T23:44:10.429Z,10.23
2018-06-11T23:46:41.708Z,5.70
2018-06-11T23:49:13.814Z,10.50
2018-06-11T23:51:44.672Z,9.47
2018-06-11T23:54:15.726Z,9.73
2018-06-11T23:56:46.823Z,6.83
2018-06-11T23:59:18.505Z,7.20
